Time;durP1;ratioP1;P1;durP2;ratioP2;P2;SDS_P1;SDS_P2;PMS_P1;PMS_P2;Temp;Humidity;BMP_temperature;BMP_pressure;BME280_temperature;BME280_humidity;BME280_pressure;Samples;Min_cycle;Max_cycle;Signal;HPM_P1;HPM_P2
2023/04/19 00:00:40;;;;;;;11.77;6.38;;;7.90;99.90;;;;;;5066641;28;20044;-75
2023/04/19 00:03:07;;;;;;;13.07;6.28;;;7.90;99.90;;;;;;5057422;28;20283;-76
2023/04/19 00:05:32;;;;;;;10.98;6.35;;;7.90;99.90;;;;;;5068443;28;20055;-75
2023/04/19 00:07:58;;;;;;;12.05;5.97;;;7.80;99.90;;;;;;5067389;28;20052;-76
2023/04/19 00:10:25;;;;;;;13.73;6.53;;;7.80;99.90;;;;;;5067754;28;20056;-76
2023/04/19 00:12:51;;;;;;;11.85;6.60;;;7.80;99.90;;;;;;5065720;28;20051;-75
2023/04/19 00:15:17;;;;;;;12.60;6.38;;;7.80;99.90;;;;;;5050506;28;20041;-76
2023/04/19 00:17:42;;;;;;;13.35;6.57;;;7.80;99.90;;;;;;5070443;28;20068;-77
2023/04/19 00:20:10;;;;;;;13.43;6.55;;;7.80;99.90;;;;;;5055438;28;20517;-76
2023/04/19 00:22:36;;;;;;;12.48;6.63;;;7.80;99.90;;;;;;5068184;28;20067;-76
2023/04/19 00:25:01;;;;;;;12.80;6.60;;;7.70;99.90;;;;;;5051640;28;20114;-76
2023/04/19 00:27:27;;;;;;;12.93;6.80;;;7.70;99.90;;;;;;5050976;28;20110;-76
2023/04/19 00:29:53;;;;;;;13.02;7.07;;;7.70;99.90;;;;;;5036140;28;20040;-76
2023/04/19 00:32:19;;;;;;;14.57;6.95;;;7.70;99.90;;;;;;5060159;28;20044;-75
2023/04/19 00:34:44;;;;;;;13.57;7.05;;;7.60;99.90;;;;;;5053872;28;20044;-76
2023/04/19 00:37:10;;;;;;;12.85;7.32;;;7.60;99.90;;;;;;5070384;28;20044;-76
2023/04/19 00:39:36;;;;;;;13.02;6.97;;;7.70;99.90;;;;;;5070447;28;20124;-76
2023/04/19 00:42:02;;;;;;;13.32;7.40;;;7.70;99.90;;;;;;5070597;28;20291;-76
2023/04/19 00:44:28;;;;;;;16.42;7.70;;;7.70;99.90;;;;;;5068915;28;20123;-75
2023/04/19 00:46:55;;;;;;;12.98;7.38;;;7.70;99.90;;;;;;5070214;28;20546;-76
2023/04/19 00:49:23;;;;;;;16.75;7.60;;;8.10;99.90;;;;;;5071757;28;20036;-76
2023/04/19 00:51:52;;;;;;;13.35;7.45;;;7.80;99.90;;;;;;5053602;28;20123;-76
2023/04/19 00:54:19;;;;;;;13.38;7.10;;;7.80;99.90;;;;;;5068577;28;20051;-76
2023/04/19 00:56:45;;;;;;;12.60;7.18;;;7.80;99.90;;;;;;5070344;28;20044;-76
2023/04/19 00:59:13;;;;;;;14.32;7.63;;;7.80;99.90;;;;;;5071629;28;20091;-76
2023/04/19 01:01:39;;;;;;;14.55;8.30;;;7.80;99.90;;;;;;5053219;28;20309;-75
2023/04/19 01:04:05;;;;;;;14.13;8.15;;;7.80;99.90;;;;;;5062138;28;20134;-76
2023/04/19 01:06:31;;;;;;;16.45;8.30;;;7.80;99.90;;;;;;5053364;28;20062;-75
2023/04/19 01:08:57;;;;;;;16.80;8.48;;;7.80;99.90;;;;;;5070131;28;20037;-77
2023/04/19 01:11:23;;;;;;;14.35;8.75;;;7.80;99.90;;;;;;5069813;28;20091;-76
2023/04/19 01:13:49;;;;;;;15.50;8.73;;;7.90;99.90;;;;;;5070454;28;20514;-76
2023/04/19 01:16:15;;;;;;;15.18;8.23;;;7.90;99.90;;;;;;5067688;28;20124;-76
2023/04/19 01:18:41;;;;;;;15.38;8.68;;;7.80;99.90;;;;;;5053557;28;20036;-76
2023/04/19 01:21:07;;;;;;;14.60;8.48;;;7.80;99.90;;;;;;5069445;28;20062;-76
2023/04/19 01:23:34;;;;;;;13.45;7.78;;;7.80;99.90;;;;;;5068588;28;20067;-76
2023/04/19 01:26:01;;;;;;;14.85;8.85;;;7.80;99.90;;;;;;5069582;28;20052;-76
2023/04/19 01:28:27;;;;;;;17.33;8.73;;;7.80;99.90;;;;;;5058121;28;20048;-75
2023/04/19 01:30:53;;;;;;;15.30;8.88;;;7.80;99.90;;;;;;5069378;28;20109;-75
2023/04/19 01:33:20;;;;;;;18.48;10.02;;;7.70;99.90;;;;;;5069042;28;20040;-75
2023/04/19 01:35:47;;;;;;;15.13;8.75;;;7.70;99.90;;;;;;5069087;28;20117;-76
2023/04/19 01:38:13;;;;;;;13.57;8.20;;;7.70;99.90;;;;;;5053071;28;20049;-76
2023/04/19 01:40:39;;;;;;;14.68;8.23;;;7.70;99.90;;;;;;5055045;28;20124;-76
2023/04/19 01:43:06;;;;;;;15.93;8.32;;;7.70;99.90;;;;;;5049560;28;20148;-76
2023/04/19 01:45:32;;;;;;;14.18;8.00;;;7.70;99.90;;;;;;5068613;28;20056;-76
2023/04/19 01:48:01;;;;;;;12.70;7.70;;;7.70;99.90;;;;;;5069441;28;20048;-76
2023/04/19 01:50:27;;;;;;;13.23;7.78;;;7.60;99.90;;;;;;5039324;28;20588;-76
2023/04/19 01:52:53;;;;;;;13.52;7.38;;;7.60;99.90;;;;;;5049261;28;20048;-76
2023/04/19 01:55:18;;;;;;;14.73;8.07;;;7.50;99.90;;;;;;5060287;28;20204;-76
2023/04/19 01:57:44;;;;;;;14.52;7.70;;;8.30;99.90;;;;;;5068886;28;20051;-76
2023/04/19 02:00:10;;;;;;;14.93;7.70;;;7.50;99.90;;;;;;5051928;28;20044;-75
2023/04/19 02:02:37;;;;;;;12.65;7.53;;;7.40;99.90;;;;;;5054884;28;20450;-76
2023/04/19 02:05:04;;;;;;;15.75;6.90;;;7.40;99.90;;;;;;5068442;28;20048;-76
2023/04/19 02:07:30;;;;;;;15.45;7.95;;;7.30;99.90;;;;;;5070205;28;20033;-75
2023/04/19 02:09:58;;;;;;;16.38;7.72;;;7.30;99.90;;;;;;5069308;28;20528;-76
2023/04/19 02:12:27;;;;;;;12.80;7.25;;;7.30;99.90;;;;;;5068598;28;20535;-76
2023/04/19 02:14:56;;;;;;;13.52;6.85;;;7.20;99.90;;;;;;5052247;28;20102;-76
2023/04/19 02:17:25;;;;;;;13.50;7.20;;;7.20;99.90;;;;;;5067601;28;20466;-75
2023/04/19 02:19:51;;;;;;;14.38;7.15;;;7.10;99.90;;;;;;5068812;28;20043;-76
2023/04/19 02:22:18;;;;;;;13.70;7.20;;;7.10;99.90;;;;;;5068239;28;20052;-75
2023/04/19 02:24:44;;;;;;;16.77;7.55;;;7.10;99.90;;;;;;5068715;28;20049;-75
2023/04/19 02:27:10;;;;;;;12.48;5.78;;;7.00;99.90;;;;;;5067766;28;20494;-76
2023/04/19 02:29:37;;;;;;;12.80;6.20;;;7.00;99.90;;;;;;5052968;28;20079;-75
2023/04/19 02:32:04;;;;;;;12.18;6.28;;;6.90;99.90;;;;;;5058364;28;20491;-76
2023/04/19 02:34:34;;;;;;;11.13;6.07;;;6.90;99.90;;;;;;5038789;28;20048;-75
2023/04/19 02:37:00;;;;;;;12.43;6.50;;;6.90;99.90;;;;;;5066711;28;20040;-75
2023/04/19 02:39:26;;;;;;;13.23;6.20;;;6.80;99.90;;;;;;5053969;28;20045;-75
2023/04/19 02:41:51;;;;;;;14.20;6.60;;;7.80;99.90;;;;;;5047767;28;20053;-75
2023/04/19 02:44:17;;;;;;;12.10;6.30;;;6.70;99.90;;;;;;5048443;28;20163;-76
2023/04/19 02:46:50;;;;;;;11.32;6.00;;;6.70;99.90;;;;;;5015850;28;20045;-75
2023/04/19 02:49:16;;;;;;;13.45;6.40;;;6.70;99.90;;;;;;5050495;28;20147;-76
2023/04/19 02:51:42;;;;;;;13.75;6.75;;;7.20;99.90;;;;;;5067780;28;20165;-75
2023/04/19 02:54:08;;;;;;;12.30;5.78;;;6.70;99.90;;;;;;5063501;28;20066;-76
2023/04/19 02:56:33;;;;;;;13.15;6.40;;;6.70;99.90;;;;;;5047934;28;20056;-75
2023/04/19 02:59:00;;;;;;;12.60;6.35;;;6.60;99.90;;;;;;5062722;28;20063;-75
2023/04/19 03:01:26;;;;;;;12.23;6.25;;;6.60;99.90;;;;;;5068155;28;20060;-75
2023/04/19 03:03:51;;;;;;;12.55;6.63;;;6.60;99.90;;;;;;5067834;28;20382;-75
2023/04/19 03:06:17;;;;;;;12.90;5.90;;;6.50;99.90;;;;;;5069339;28;20047;-75
2023/04/19 03:08:43;;;;;;;11.50;5.97;;;6.60;99.90;;;;;;5050527;28;20041;-75
2023/04/19 03:11:10;;;;;;;13.23;6.32;;;6.50;99.90;;;;;;5067608;28;20056;-75
2023/04/19 03:13:36;;;;;;;12.07;6.03;;;6.50;99.90;;;;;;5068338;28;20054;-76
2023/04/19 03:16:02;;;;;;;12.20;6.47;;;6.40;99.90;;;;;;5068412;28;20040;-75
2023/04/19 03:18:28;;;;;;;14.02;6.13;;;6.40;99.90;;;;;;5066839;28;20055;-75
2023/04/19 03:20:54;;;;;;;14.07;6.22;;;6.40;99.90;;;;;;5062182;28;20645;-75
2023/04/19 03:23:20;;;;;;;12.95;6.28;;;7.80;99.90;;;;;;5048683;28;20044;-75
2023/04/19 03:25:45;;;;;;;11.75;6.05;;;6.30;99.90;;;;;;5047595;28;20049;-75
2023/04/19 03:28:11;;;;;;;15.98;6.65;;;6.30;99.90;;;;;;5032043;28;20044;-75
2023/04/19 03:30:37;;;;;;;12.68;5.88;;;6.70;99.90;;;;;;5061737;28;20472;-75
2023/04/19 03:33:03;;;;;;;13.18;6.32;;;7.50;99.90;;;;;;5064649;28;20060;-75
2023/04/19 03:35:31;;;;;;;13.43;6.55;;;6.20;99.90;;;;;;5067048;28;20644;-75
2023/04/19 03:37:57;;;;;;;14.55;6.88;;;6.20;99.90;;;;;;5050822;28;20099;-75
2023/04/19 03:40:22;;;;;;;12.48;6.15;;;6.10;99.90;;;;;;5066257;28;20072;-75
2023/04/19 03:42:48;;;;;;;13.13;6.10;;;6.10;99.90;;;;;;5047283;28;20090;-76
2023/04/19 03:45:14;;;;;;;13.05;6.25;;;6.10;99.90;;;;;;5031086;28;20048;-75
2023/04/19 03:47:39;;;;;;;14.13;6.20;;;6.20;99.90;;;;;;5052171;28;20530;-76
2023/04/19 03:50:06;;;;;;;12.82;5.93;;;6.30;99.90;;;;;;5067636;28;20244;-75
2023/04/19 03:52:32;;;;;;;12.35;6.22;;;6.10;99.90;;;;;;5068219;28;20056;-76
2023/04/19 03:54:58;;;;;;;14.90;5.70;;;6.10;99.90;;;;;;5059756;28;20045;-76
2023/04/19 03:57:23;;;;;;;14.30;6.00;;;6.00;99.90;;;;;;5052884;28;20162;-75
2023/04/19 03:59:49;;;;;;;10.95;5.90;;;6.40;99.90;;;;;;5026002;28;20045;-75
2023/04/19 04:02:15;;;;;;;13.55;5.68;;;5.90;99.90;;;;;;5039310;28;20082;-75
2023/04/19 04:04:40;;;;;;;12.63;5.57;;;6.90;99.90;;;;;;5071573;28;20037;-75
2023/04/19 04:07:06;;;;;;;12.13;5.78;;;5.90;99.90;;;;;;5054392;28;20056;-75
2023/04/19 04:09:32;;;;;;;10.50;5.28;;;6.00;99.90;;;;;;5069881;28;20044;-75
2023/04/19 04:11:57;;;;;;;12.48;5.70;;;6.50;99.90;;;;;;5068846;28;20442;-75
2023/04/19 04:14:23;;;;;;;11.00;4.85;;;5.80;99.90;;;;;;5051159;28;20082;-75
2023/04/19 04:16:49;;;;;;;10.48;5.25;;;6.50;99.90;;;;;;5050875;28;20063;-75
2023/04/19 04:19:15;;;;;;;12.18;5.57;;;5.90;99.90;;;;;;5056890;28;20143;-75
2023/04/19 04:21:40;;;;;;;11.18;4.75;;;5.90;99.90;;;;;;5072098;28;20457;-75
2023/04/19 04:24:06;;;;;;;11.48;5.13;;;5.90;99.90;;;;;;5072480;28;20375;-75
2023/04/19 04:26:34;;;;;;;11.15;5.22;;;5.90;99.90;;;;;;5070850;28;20048;-75
2023/04/19 04:29:03;;;;;;;9.45;4.90;;;5.90;99.90;;;;;;5071020;28;20052;-75
2023/04/19 04:31:28;;;;;;;10.85;4.93;;;5.90;99.90;;;;;;5068561;28;20080;-75
2023/04/19 04:33:54;;;;;;;10.80;5.00;;;5.90;99.90;;;;;;5070076;28;20079;-75
2023/04/19 04:36:21;;;;;;;11.10;4.70;;;5.90;99.90;;;;;;5070577;28;20434;-75
2023/04/19 04:38:47;;;;;;;12.75;4.90;;;5.80;99.90;;;;;;5054249;28;20052;-75
2023/04/19 04:41:13;;;;;;;10.20;4.63;;;5.80;99.90;;;;;;5068826;28;20105;-75
2023/04/19 04:43:38;;;;;;;12.80;5.10;;;5.80;99.90;;;;;;5070885;28;20086;-76
2023/04/19 04:46:05;;;;;;;9.25;4.40;;;6.90;99.90;;;;;;5069308;28;20049;-76
2023/04/19 04:48:30;;;;;;;11.10;4.70;;;7.30;99.90;;;;;;5039290;28;20052;-75
2023/04/19 04:50:57;;;;;;;10.45;4.63;;;5.80;99.90;;;;;;5055176;28;20386;-75
2023/04/19 04:53:26;;;;;;;10.57;4.40;;;6.60;99.90;;;;;;5056701;28;20475;-74
2023/04/19 04:55:53;;;;;;;12.10;4.97;;;5.70;99.90;;;;;;5050141;28;20041;-75
2023/04/19 04:58:19;;;;;;;10.20;4.53;;;5.80;99.90;;;;;;5050622;28;20076;-75
2023/04/19 05:00:45;;;;;;;10.35;4.75;;;5.80;99.90;;;;;;5056380;28;20175;-75
2023/04/19 05:03:11;;;;;;;10.55;4.45;;;5.80;99.90;;;;;;5069006;28;20044;-75
2023/04/19 05:05:37;;;;;;;10.20;3.97;;;5.80;99.90;;;;;;5053310;28;20044;-75
2023/04/19 05:08:03;;;;;;;11.07;4.60;;;5.90;99.90;;;;;;5071625;28;20045;-75
2023/04/19 05:10:29;;;;;;;9.60;4.28;;;5.90;99.90;;;;;;5070011;28;20032;-75
2023/04/19 05:12:55;;;;;;;9.77;4.45;;;6.10;99.90;;;;;;5058379;28;20479;-75
2023/04/19 05:15:20;;;;;;;10.15;4.50;;;6.50;99.90;;;;;;5049957;28;20098;-75
2023/04/19 05:17:46;;;;;;;10.57;4.72;;;6.00;99.90;;;;;;5051047;28;20094;-76
2023/04/19 05:20:12;;;;;;;10.18;4.35;;;6.00;99.90;;;;;;5049857;28;20036;-75
2023/04/19 05:22:38;;;;;;;10.52;4.53;;;7.10;99.90;;;;;;5039871;28;20078;-75
2023/04/19 05:25:05;;;;;;;9.70;4.55;;;6.10;99.90;;;;;;5051153;28;20072;-75
2023/04/19 05:27:31;;;;;;;11.52;4.30;;;6.10;99.90;;;;;;5049814;28;20045;-75
2023/04/19 05:29:56;;;;;;;11.82;4.47;;;6.20;99.90;;;;;;5049870;28;20443;-75
2023/04/19 05:32:22;;;;;;;11.23;4.50;;;6.20;99.90;;;;;;5040371;28;20494;-76
2023/04/19 05:34:48;;;;;;;10.88;4.50;;;6.30;99.90;;;;;;5058135;28;20041;-76
2023/04/19 05:37:14;;;;;;;11.32;4.40;;;6.40;99.90;;;;;;5056866;28;20042;-75
2023/04/19 05:39:39;;;;;;;9.75;4.30;;;6.40;99.90;;;;;;5070998;28;20517;-76
2023/04/19 05:42:05;;;;;;;10.40;4.32;;;6.50;99.90;;;;;;5068919;28;20140;-75
2023/04/19 05:44:31;;;;;;;11.50;4.50;;;6.50;99.90;;;;;;5067624;28;20044;-76
2023/04/19 05:46:57;;;;;;;10.40;4.45;;;6.70;99.90;;;;;;5070446;28;20048;-76
2023/04/19 05:49:23;;;;;;;8.90;3.97;;;6.70;99.90;;;;;;5052957;28;20033;-76
2023/04/19 05:51:48;;;;;;;10.18;4.50;;;6.80;99.90;;;;;;5070661;28;20033;-75
2023/04/19 05:54:15;;;;;;;10.48;4.38;;;6.90;99.90;;;;;;5067637;28;20049;-76
2023/04/19 05:56:41;;;;;;;9.50;4.00;;;7.00;99.90;;;;;;5049780;28;20502;-76
2023/04/19 05:59:07;;;;;;;10.00;4.10;;;7.10;99.90;;;;;;5049164;28;20091;-77
2023/04/19 06:01:34;;;;;;;10.98;4.22;;;7.20;99.90;;;;;;5049212;28;20084;-76
2023/04/19 06:03:59;;;;;;;9.32;3.97;;;7.20;99.90;;;;;;5067890;28;20060;-76
2023/04/19 06:06:26;;;;;;;11.32;3.97;;;7.30;99.90;;;;;;5053829;28;20045;-77
2023/04/19 06:08:52;;;;;;;9.18;4.10;;;7.40;99.90;;;;;;5050104;28;20056;-77
2023/04/19 06:11:17;;;;;;;9.95;3.83;;;7.40;99.90;;;;;;5050424;28;20398;-76
2023/04/19 06:13:43;;;;;;;12.32;3.88;;;7.50;99.90;;;;;;5033183;28;20040;-76
2023/04/19 06:16:09;;;;;;;10.50;4.30;;;7.60;99.90;;;;;;5030262;28;20466;-76
2023/04/19 06:18:35;;;;;;;9.45;3.60;;;7.70;99.90;;;;;;5070204;28;20044;-77
2023/04/19 06:21:01;;;;;;;11.77;4.00;;;7.60;99.90;;;;;;5068361;28;20490;-76
2023/04/19 06:23:27;;;;;;;9.02;3.80;;;7.90;99.90;;;;;;5069050;28;20041;-77
2023/04/19 06:25:52;;;;;;;9.20;3.58;;;8.30;99.90;;;;;;5066237;28;20045;-77
2023/04/19 06:28:18;;;;;;;10.48;4.05;;;7.90;99.90;;;;;;5052343;28;20056;-76
2023/04/19 06:30:44;;;;;;;9.13;3.60;;;8.00;99.90;;;;;;5048392;28;20045;-76
2023/04/19 06:33:10;;;;;;;11.55;3.83;;;8.00;99.90;;;;;;5049631;28;20073;-76
2023/04/19 06:35:36;;;;;;;9.48;3.40;;;8.10;99.90;;;;;;5068315;28;20071;-76
2023/04/19 06:38:02;;;;;;;9.05;3.63;;;8.30;99.90;;;;;;5068181;28;20119;-77
2023/04/19 06:40:28;;;;;;;9.77;3.13;;;8.40;99.90;;;;;;5051780;28;20166;-77
2023/04/19 06:42:54;;;;;;;8.88;3.25;;;8.50;99.90;;;;;;5069740;28;20593;-76
2023/04/19 06:45:20;;;;;;;10.32;3.42;;;8.60;99.90;;;;;;5068286;28;20044;-77
2023/04/19 06:47:46;;;;;;;9.32;3.03;;;8.70;99.90;;;;;;5066198;28;20066;-76
2023/04/19 06:50:12;;;;;;;8.55;3.40;;;8.70;99.90;;;;;;5051368;28;20115;-77
2023/04/19 06:52:38;;;;;;;9.38;3.10;;;8.70;99.90;;;;;;5068351;28;20044;-76
2023/04/19 06:55:05;;;;;;;7.65;3.35;;;8.80;99.90;;;;;;5069236;28;20048;-77
2023/04/19 06:57:31;;;;;;;7.85;2.97;;;8.90;99.90;;;;;;5065888;28;20047;-77
2023/04/19 06:59:57;;;;;;;7.97;2.80;;;9.00;99.90;;;;;;5068090;28;20144;-77
2023/04/19 07:02:23;;;;;;;8.50;2.90;;;9.00;99.90;;;;;;5062595;28;20139;-76
2023/04/19 07:04:49;;;;;;;8.63;3.00;;;9.10;99.90;;;;;;5063311;28;20520;-76
2023/04/19 07:07:15;;;;;;;9.65;2.97;;;9.10;99.90;;;;;;5066813;28;20048;-76
2023/04/19 07:09:41;;;;;;;10.15;3.00;;;9.20;99.90;;;;;;5053003;28;20063;-76
2023/04/19 07:12:07;;;;;;;7.85;2.83;;;9.30;99.90;;;;;;5031340;28;20127;-76
2023/04/19 07:14:32;;;;;;;8.48;2.85;;;9.40;99.90;;;;;;5047740;28;20499;-76
2023/04/19 07:16:58;;;;;;;8.07;2.85;;;9.50;99.90;;;;;;5031399;28;20041;-77
2023/04/19 07:19:25;;;;;;;8.40;2.50;;;9.50;99.90;;;;;;5061288;28;20419;-76
2023/04/19 07:21:50;;;;;;;15.20;3.22;;;9.50;99.90;;;;;;5067438;28;20048;-76
2023/04/19 07:24:16;;;;;;;6.93;2.58;;;9.50;99.90;;;;;;5067651;28;20097;-76
2023/04/19 07:26:42;;;;;;;9.75;2.78;;;9.50;99.90;;;;;;5066872;28;20064;-76
2023/04/19 07:29:08;;;;;;;8.38;2.80;;;9.60;99.90;;;;;;5050200;28;20253;-76
2023/04/19 07:31:34;;;;;;;8.45;2.63;;;9.70;99.90;;;;;;5066054;28;20429;-76
2023/04/19 07:33:59;;;;;;;7.35;2.70;;;9.80;99.90;;;;;;5056968;28;20366;-76
2023/04/19 07:36:25;;;;;;;7.85;2.63;;;9.90;99.90;;;;;;5033996;28;20056;-76
2023/04/19 07:38:51;;;;;;;7.35;2.25;;;10.00;99.90;;;;;;5059778;28;20041;-77
2023/04/19 07:41:17;;;;;;;7.18;2.42;;;10.10;99.90;;;;;;5052699;28;20059;-76
2023/04/19 07:43:43;;;;;;;6.90;2.42;;;10.10;99.90;;;;;;5047593;28;20667;-76
2023/04/19 07:46:10;;;;;;;7.65;2.72;;;10.20;99.90;;;;;;5047284;28;20501;-76
2023/04/19 07:48:36;;;;;;;10.00;2.80;;;10.20;99.90;;;;;;5054211;28;20059;-76
2023/04/19 07:51:29;;;;;;;8.35;2.47;;;10.30;99.90;;;;;;5066885;28;20044;-78
2023/04/19 07:53:54;;;;;;;7.78;2.38;;;10.20;99.90;;;;;;5063907;28;20052;-76
2023/04/19 07:56:22;;;;;;;6.88;2.35;;;10.30;99.90;;;;;;5067127;28;20051;-76
2023/04/19 07:58:47;;;;;;;8.93;2.75;;;10.30;99.90;;;;;;5067444;28;20161;-76
2023/04/19 08:01:13;;;;;;;8.52;2.50;;;10.40;99.90;;;;;;5066177;28;20083;-76
2023/04/19 08:03:39;;;;;;;6.55;2.25;;;10.50;99.90;;;;;;5059165;28;20095;-76
2023/04/19 08:06:08;;;;;;;6.85;2.30;;;10.50;99.90;;;;;;5047165;28;20453;-76
2023/04/19 08:08:35;;;;;;;5.85;2.10;;;10.50;99.90;;;;;;5037173;28;20123;-77
2023/04/19 08:11:01;;;;;;;6.53;2.03;;;10.60;99.90;;;;;;5065080;28;20044;-77
2023/04/19 08:13:28;;;;;;;8.43;2.53;;;10.70;99.90;;;;;;5067775;28;20093;-76
2023/04/19 08:15:53;;;;;;;8.15;2.60;;;10.70;99.90;;;;;;5050363;28;20056;-76
2023/04/19 08:18:19;;;;;;;7.03;2.30;;;10.80;99.90;;;;;;5067190;28;20048;-77
2023/04/19 08:20:48;;;;;;;10.32;2.40;;;10.90;99.90;;;;;;5066978;28;20128;-76
2023/04/19 08:23:14;;;;;;;16.13;2.67;;;10.90;99.90;;;;;;5050582;28;20148;-78
2023/04/19 08:25:40;;;;;;;6.35;2.05;;;10.80;99.90;;;;;;5068474;28;20703;-77
2023/04/19 08:28:05;;;;;;;5.95;2.20;;;10.80;99.90;;;;;;5067075;28;20414;-76
2023/04/19 08:30:31;;;;;;;8.15;2.25;;;10.90;99.90;;;;;;5067074;28;20044;-76
2023/04/19 08:32:57;;;;;;;8.93;2.30;;;11.00;99.90;;;;;;5065853;28;20470;-76
2023/04/19 08:35:24;;;;;;;7.75;2.30;;;11.00;99.90;;;;;;5058490;28;20388;-76
2023/04/19 08:37:50;;;;;;;6.85;2.22;;;11.10;99.90;;;;;;5047215;28;20434;-76
2023/04/19 08:40:16;;;;;;;6.90;2.40;;;11.20;99.90;;;;;;5050830;28;20562;-76
2023/04/19 08:42:42;;;;;;;9.10;2.30;;;11.30;99.90;;;;;;5056421;28;21626;-76
2023/04/19 08:45:10;;;;;;;9.32;2.25;;;11.40;99.90;;;;;;5058237;28;20048;-77
2023/04/19 08:47:36;;;;;;;6.35;2.40;;;11.60;99.90;;;;;;5070568;28;20048;-76
2023/04/19 08:50:04;;;;;;;7.70;2.47;;;11.70;99.90;;;;;;5070184;28;20171;-76
2023/04/19 08:52:33;;;;;;;5.70;2.10;;;11.70;99.90;;;;;;5062861;28;20083;-76
2023/04/19 08:55:03;;;;;;;5.93;2.10;;;11.80;99.90;;;;;;5034711;28;20459;-77
2023/04/19 08:57:34;;;;;;;7.20;2.42;;;11.80;99.90;;;;;;5050227;28;20348;-78
2023/04/19 09:00:01;;;;;;;9.07;2.30;;;11.90;99.90;;;;;;5050322;28;20045;-77
2023/04/19 09:02:27;;;;;;;7.28;2.22;;;11.90;99.90;;;;;;5059341;28;20206;-77
2023/04/19 09:04:53;;;;;;;5.68;1.90;;;12.00;99.90;;;;;;5068539;28;20624;-76
2023/04/19 09:07:26;;;;;;;9.13;2.10;;;12.10;99.90;;;;;;5053358;28;20297;-77
2023/04/19 09:10:08;;;;;;;;;;;12.10;99.90;;;;;;5070598;28;20076;-77
2023/04/19 09:12:35;;;;;;;6.13;2.03;;;12.20;99.90;;;;;;5069324;28;19916;-76
2023/04/19 09:15:03;;;;;;;7.85;2.20;;;12.20;99.90;;;;;;5071573;28;20078;-77
2023/04/19 09:17:30;;;;;;;5.82;2.10;;;12.40;99.90;;;;;;5070066;28;20441;-77
2023/04/19 09:19:56;;;;;;;5.32;2.00;;;12.40;99.90;;;;;;5053216;28;20040;-77
2023/04/19 09:22:22;;;;;;;9.60;2.10;;;12.50;99.90;;;;;;5052131;28;20059;-77
2023/04/19 09:24:48;;;;;;;7.30;2.55;;;12.50;99.90;;;;;;5069858;28;20502;-76
2023/04/19 09:27:23;;;;;;;7.93;2.10;;;12.60;99.90;;;;;;5071085;28;20060;-76
2023/04/19 09:29:56;;;;;;;6.72;2.13;;;12.60;99.90;;;;;;5072125;28;20525;-77
2023/04/19 09:32:22;;;;;;;5.80;2.17;;;12.70;99.90;;;;;;5067260;28;20083;-76
2023/04/19 09:34:59;;;;;;;5.53;1.90;;;12.70;99.90;;;;;;5072168;28;20093;-77
2023/04/19 09:37:26;;;;;;;6.00;1.98;;;12.80;99.90;;;;;;5071278;28;20162;-76
2023/04/19 09:39:52;;;;;;;7.13;2.10;;;12.80;99.90;;;;;;5066445;28;20049;-77
2023/04/19 09:42:19;;;;;;;7.53;1.90;;;12.90;99.90;;;;;;5053117;28;20423;-77
2023/04/19 09:45:04;;;;;;;5.70;2.10;;;12.90;99.90;;;;;;5066547;28;20076;-76
2023/04/19 09:47:30;;;;;;;4.85;1.90;;;12.90;99.90;;;;;;5070537;28;20044;-76
2023/04/19 09:50:07;;;;;;;7.50;2.10;;;13.00;99.90;;;;;;5068645;28;20045;-78
2023/04/19 09:52:33;;;;;;;7.70;2.03;;;13.10;99.90;;;;;;5052784;28;20040;-77
2023/04/19 09:55:05;;;;;;;6.65;1.90;;;13.10;99.90;;;;;;5060847;28;20091;-76
2023/04/19 09:57:32;;;;;;;6.15;2.00;;;13.20;99.90;;;;;;5048746;28;20040;-76
2023/04/19 09:59:59;;;;;;;6.22;2.00;;;13.20;99.90;;;;;;5050601;28;20045;-78
2023/04/19 10:02:33;;;;;;;5.90;2.05;;;13.10;99.90;;;;;;5056797;28;20108;-76
2023/04/19 10:04:59;;;;;;;6.68;1.90;;;13.10;99.90;;;;;;5067123;28;20401;-77
2023/04/19 10:07:26;;;;;;;5.38;1.70;;;13.10;99.90;;;;;;5052048;28;20127;-77
2023/04/19 10:09:56;;;;;;;5.07;1.80;;;13.10;99.90;;;;;;5069141;28;20465;-76
2023/04/19 10:12:25;;;;;;;6.53;2.00;;;13.20;99.90;;;;;;5068312;28;20050;-76
2023/04/19 10:14:57;;;;;;;5.68;1.90;;;13.30;99.90;;;;;;5066610;28;20119;-76
2023/04/19 10:17:24;;;;;;;6.20;2.10;;;13.30;99.90;;;;;;5055848;28;20398;-77
2023/04/19 10:19:58;;;;;;;8.32;2.00;;;13.30;99.90;;;;;;5048883;28;20095;-76
2023/04/19 10:22:24;;;;;;;5.65;1.88;;;13.30;99.90;;;;;;5032052;28;20344;-77
2023/04/19 10:25:12;;;;;;;7.63;1.70;;;13.30;99.90;;;;;;5037842;28;20040;-76
2023/04/19 10:27:39;;;;;;;6.80;1.80;;;13.40;99.90;;;;;;5053456;28;20049;-78
2023/04/19 10:30:16;;;;;;;6.47;1.90;;;13.20;99.90;;;;;;5049148;28;20049;-76
2023/04/19 10:32:50;;;;;;;4.78;1.70;;;13.30;99.90;;;;;;5033348;28;20044;-78
2023/04/19 10:35:17;;;;;;;5.13;1.90;;;13.40;99.90;;;;;;5066652;28;20430;-77
2023/04/19 10:38:05;;;;;;;6.15;1.83;;;13.50;99.90;;;;;;5068048;28;20045;-78
2023/04/19 10:40:59;;;;;;;7.07;1.77;;;13.40;99.50;;;;;;5058183;28;20069;-77
2023/04/19 10:43:35;;;;;;;5.18;1.80;;;13.40;99.90;;;;;;5039821;28;20050;-76
2023/04/19 10:46:08;;;;;;;4.60;1.77;;;13.40;99.90;;;;;;5067303;28;20119;-77
2023/04/19 10:48:38;;;;;;;5.15;1.70;;;13.50;99.90;;;;;;5068693;28;20356;-77
2023/04/19 10:51:15;;;;;;;4.32;1.80;;;13.50;99.90;;;;;;5067771;28;20055;-77
2023/04/19 10:53:58;;;;;;;5.97;1.73;;;13.50;99.90;;;;;;5069467;28;20049;-76
2023/04/19 10:56:33;;;;;;;4.22;1.60;;;13.50;99.90;;;;;;5066885;28;20045;-79
2023/04/19 10:59:01;;;;;;;7.28;1.77;;;13.60;99.90;;;;;;5069258;28;20168;-77
2023/04/19 11:01:44;;;;;;;5.60;1.60;;;13.60;99.90;;;;;;5068613;28;20055;-77
2023/04/19 11:04:12;;;;;;;6.50;2.00;;;13.70;99.90;;;;;;5063357;28;20513;-76
2023/04/19 11:06:55;;;;;;;4.60;1.60;;;13.60;99.90;;;;;;5059156;28;20049;-76
2023/04/19 11:09:25;;;;;;;5.72;1.70;;;13.70;99.90;;;;;;5049532;28;20418;-77
2023/04/19 11:11:52;;;;;;;7.75;1.80;;;13.70;99.90;;;;;;5047794;28;20055;-77
2023/04/19 11:14:23;;;;;;;7.05;1.80;;;13.80;99.90;;;;;;5048151;28;20045;-77
2023/04/19 11:16:48;;;;;;;5.68;1.90;;;13.80;99.90;;;;;;5058160;28;20494;-79
2023/04/19 11:19:18;;;;;;;5.55;1.88;;;13.80;99.90;;;;;;5055392;28;20041;-77
2023/04/19 11:21:45;;;;;;;7.47;1.83;;;13.80;99.90;;;;;;5058489;28;20045;-76
2023/04/19 11:24:11;;;;;;;6.35;2.10;;;13.80;99.90;;;;;;5047637;28;20043;-77
2023/04/19 11:26:38;;;;;;;6.70;2.10;;;13.80;99.90;;;;;;5052646;28;20044;-77
2023/04/19 11:29:05;;;;;;;7.20;2.00;;;13.90;99.90;;;;;;5051523;28;20091;-76
2023/04/19 11:31:35;;;;;;;6.57;2.00;;;14.00;99.90;;;;;;5049751;28;20052;-77
2023/04/19 11:34:02;;;;;;;6.95;2.22;;;14.00;99.90;;;;;;5062775;28;20052;-78
2023/04/19 11:36:28;;;;;;;7.38;2.20;;;14.10;99.90;;;;;;5066904;28;20048;-76
2023/04/19 11:38:54;;;;;;;6.93;2.10;;;14.00;99.90;;;;;;5067475;28;20044;-76
2023/04/19 11:41:20;;;;;;;6.55;2.20;;;14.00;99.90;;;;;;5067835;28;20093;-78
2023/04/19 11:43:47;;;;;;;7.05;2.40;;;13.90;99.90;;;;;;5067725;28;20117;-77
2023/04/19 11:46:13;;;;;;;7.65;2.30;;;13.90;99.90;;;;;;5051125;28;20037;-76
2023/04/19 11:48:52;;;;;;;5.90;2.20;;;13.90;99.90;;;;;;5055281;28;20403;-76
2023/04/19 11:51:18;;;;;;;6.15;2.10;;;13.90;99.90;;;;;;5037104;28;20498;-77
2023/04/19 11:53:44;;;;;;;6.53;2.30;;;13.90;99.90;;;;;;5067835;28;20559;-76
2023/04/19 11:56:10;;;;;;;7.25;2.42;;;13.90;99.90;;;;;;5067557;28;20135;-77
2023/04/19 11:58:49;;;;;;;9.15;2.60;;;14.00;99.90;;;;;;5065463;28;20037;-77
2023/04/19 12:01:20;;;;;;;7.93;2.50;;;14.10;99.90;;;;;;5062226;28;20029;-77
2023/04/19 12:03:52;;;;;;;6.97;2.25;;;13.90;99.90;;;;;;5065176;28;20055;-76
2023/04/19 12:06:24;;;;;;;7.07;2.38;;;13.80;99.90;;;;;;5060383;28;20126;-76
2023/04/19 12:08:52;;;;;;;6.82;2.45;;;13.80;99.90;;;;;;5059160;28;20041;-78
2023/04/19 12:11:39;;;;;;;6.57;2.17;;;13.80;99.90;;;;;;5068667;28;20051;-77
2023/04/19 12:14:13;;;;;;;7.65;2.50;;;13.70;99.90;;;;;;5071892;28;20059;-76
2023/04/19 12:16:39;;;;;;;8.75;2.95;;;13.80;99.90;;;;;;5070883;28;20040;-78
2023/04/19 12:19:16;;;;;;;8.73;2.20;;;13.90;99.90;;;;;;5053898;28;20040;-77
2023/04/19 12:21:43;;;;;;;7.18;2.53;;;13.90;99.90;;;;;;5038033;28;20032;-76
2023/04/19 12:24:08;;;;;;;7.10;2.38;;;14.00;99.90;;;;;;5071088;28;20036;-76
2023/04/19 12:26:35;;;;;;;9.25;2.60;;;14.00;99.90;;;;;;5072300;28;20118;-77
2023/04/19 12:29:02;;;;;;;7.95;2.53;;;13.90;99.90;;;;;;5070074;28;20048;-77
2023/04/19 12:31:31;;;;;;;9.32;2.67;;;13.80;99.90;;;;;;5069836;28;20102;-77
2023/04/19 12:33:56;;;;;;;7.97;2.50;;;13.80;99.90;;;;;;5067290;28;20123;-76
2023/04/19 12:36:22;;;;;;;7.20;2.42;;;13.90;99.90;;;;;;5071933;28;20574;-77
2023/04/19 12:38:48;;;;;;;7.63;2.85;;;13.90;99.90;;;;;;5039791;28;20427;-77
2023/04/19 12:41:13;;;;;;;8.52;2.58;;;14.00;99.90;;;;;;5067046;28;20040;-77
2023/04/19 12:43:39;;;;;;;7.72;2.55;;;14.00;99.90;;;;;;5054433;28;20127;-76
2023/04/19 12:46:05;;;;;;;9.40;2.88;;;14.00;99.90;;;;;;5070310;28;20078;-77
2023/04/19 12:48:31;;;;;;;7.20;2.83;;;14.00;99.90;;;;;;5070457;28;20044;-78